aviador You're here:

ZMUB Decoded Metar

ULAN BATOR in MONGOLIA
Report Time2017-05-23 20:00:00
UTC Time2017-05-23 20:31:41
Flight Rules vfr VFR
WindVRB at 2 kt
Visibility9999 m
Phenomena:N/A
Clouds:N/A
Expected CloudBase > 2,800 ft AGL from Temp-Dew spread
CeilingNone
Temp05°C (ISA -1)
Dew Point-2°C (61% RH)
AAT2.0°C
QNH1018 hPa
Density Alt4,117 ft
Elevation4,364 ft
Report Wrong Elevation
Raw Report
ZMUB 232000Z VRB01MPS CAVOK 05/M02 Q1018 NOSIG RMK QFE656.1 61=

Extra information for ZMUB:More info

Metar Taf Metar & Taf Last 4 Metars F.Rules Stats Wind Profile Meteogram Temp Stats Airport Information Weather charts Add Link Nearby VenuesMetar ALERT Operation Metar Decoded Social comments